Time;durP1;ratioP1;P1;durP2;ratioP2;P2;SDS_P1;SDS_P2;PMS_P1;PMS_P2;Temp;Humidity;BMP_temperature;BMP_pressure;BME280_temperature;BME280_humidity;BME280_pressure;Samples;Min_cycle;Max_cycle;Signal;HPM_P1;HPM_P2
2022/01/26 00:07:16;;;;;;;26.13;15.63;;;;;;;;;;5015091;28;20679;-73
2022/01/26 00:09:44;;;;;;;25.97;15.50;;;;;;;;;;5015383;28;20262;-73
2022/01/26 00:12:13;;;;;;;24.63;15.27;;;;;;;;;;5015346;28;20888;-74
2022/01/26 00:14:43;;;;;;;25.87;14.83;;;;;;;;;;5015130;28;20209;-72
2022/01/26 00:17:13;;;;;;;30.93;15.50;;;;;;;;;;5015231;28;20208;-72
2022/01/26 00:19:51;;;;;;;24.77;15.07;;;;;;;;;;5015398;28;20265;-76
2022/01/26 00:22:38;;;;;;;24.47;15.23;;;;;;;;;;5015181;28;20210;-74
2022/01/26 00:25:22;;;;;;;25.93;15.40;;;;;;;;;;5014851;28;20705;-75
2022/01/26 00:27:54;;;;;;;29.47;15.37;;;;;;;;;;5015232;28;20228;-73
2022/01/26 00:38:46;;;;;;;23.60;14.03;;;;;;;;;;5014783;28;20221;-74
2022/01/26 00:41:19;;;;;;;22.20;13.20;;;;;;;;;;5014519;28;20212;-72
2022/01/26 00:43:51;;;;;;;19.80;10.70;;;;;;;;;;5006520;28;20211;-76
2022/01/26 00:46:20;;;;;;;23.67;12.53;;;;;;;;;;4995092;28;20237;-72
2022/01/26 00:48:51;;;;;;;19.50;11.33;;;;;;;;;;4994855;28;20710;-74
2022/01/26 00:51:22;;;;;;;22.67;12.00;;;;;;;;;;5012560;28;20202;-76
2022/01/26 00:53:55;;;;;;;25.03;13.57;;;;;;;;;;5014258;28;20668;-73
2022/01/26 00:56:23;;;;;;;21.43;12.37;;;;;;;;;;5014321;28;20226;-73
2022/01/26 00:58:52;;;;;;;19.07;11.00;;;;;;;;;;5014580;28;20620;-77
2022/01/26 01:01:20;;;;;;;21.33;12.60;;;;;;;;;;5014455;28;20201;-72
2022/01/26 01:03:50;;;;;;;22.77;12.27;;;;;;;;;;5014236;28;20691;-73
2022/01/26 01:06:23;;;;;;;25.23;13.10;;;;;;;;;;5014321;28;20212;-74
2022/01/26 01:08:53;;;;;;;20.77;12.50;;;;;;;;;;5013802;28;20265;-74
2022/01/26 01:11:21;;;;;;;22.53;11.90;;;;;;;;;;5013341;28;20700;-75
2022/01/26 01:13:50;;;;;;;21.30;12.20;;;;;;;;;;5013779;28;20258;-75
2022/01/26 01:16:21;;;;;;;18.90;10.87;;;;;;;;;;5014146;28;20207;-74
2022/01/26 01:18:57;;;;;;;19.53;10.70;;;;;;;;;;5013843;28;20565;-73
2022/01/26 01:22:06;;;;;;;20.83;11.40;;;;;;;;;;5013196;28;20209;-76
2022/01/26 01:25:31;;;;;;;21.37;11.27;;;;;;;;;;5013588;28;20706;-73
2022/01/26 01:30:45;;;;;;;23.90;12.47;;;;;;;;;;5013506;28;20620;-73
2022/01/26 01:33:18;;;;;;;20.03;11.37;;;;;;;;;;5013304;28;20672;-75
2022/01/26 01:35:49;;;;;;;18.63;11.27;;;;;;;;;;5013580;28;20203;-76
2022/01/26 01:38:20;;;;;;;20.67;11.53;;;;;;;;;;5004716;28;20230;-73
2022/01/26 01:40:49;;;;;;;21.20;12.00;;;;;;;;;;5013718;28;20257;-76
2022/01/26 01:43:19;;;;;;;21.60;11.67;;;;;;;;;;5013250;28;20202;-75
2022/01/26 01:45:50;;;;;;;21.77;12.97;;;;;;;;;;5013647;28;20264;-73
2022/01/26 01:48:21;;;;;;;20.87;12.07;;;;;;;;;;5013761;28;20235;-73
2022/01/26 01:50:53;;;;;;;21.60;12.93;;;;;;;;;;4997190;28;20194;-74
2022/01/26 01:53:29;;;;;;;20.93;11.47;;;;;;;;;;5013413;28;20207;-76
2022/01/26 01:55:59;;;;;;;23.77;13.37;;;;;;;;;;5013558;28;20671;-73
2022/01/26 01:58:27;;;;;;;22.20;12.50;;;;;;;;;;5013402;28;20242;-75
2022/01/26 02:00:56;;;;;;;22.03;12.67;;;;;;;;;;5013031;28;20203;-73
2022/01/26 02:03:25;;;;;;;20.53;11.43;;;;;;;;;;5008177;28;20202;-77
2022/01/26 02:05:55;;;;;;;19.63;11.03;;;;;;;;;;5013479;28;20212;-74
2022/01/26 02:08:23;;;;;;;22.60;12.40;;;;;;;;;;5013051;28;20230;-72
2022/01/26 02:10:52;;;;;;;22.70;12.10;;;;;;;;;;5013255;28;20208;-73
2022/01/26 02:13:24;;;;;;;19.57;11.93;;;;;;;;;;5013391;28;20340;-74
2022/01/26 02:16:00;;;;;;;21.40;12.83;;;;;;;;;;5013497;28;20208;-73
2022/01/26 02:18:54;;;;;;;27.00;13.90;;;;;;;;;;5013326;28;20223;-72
2022/01/26 02:49:48;;;;;;;25.07;13.57;;;;;;;;;;5078948;28;20671;-76
2022/01/26 02:52:31;;;;;;;27.10;14.40;;;;;;;;;;5085477;28;20554;-76
2022/01/26 02:55:19;;;;;;;26.40;14.67;;;;;;;;;;5089804;28;20197;-73
2022/01/26 03:00:44;;;;;;;26.57;14.80;;;;;;;;;;5079388;28;20565;-74
2022/01/26 03:03:17;;;;;;;26.20;13.27;;;;;;;;;;5078310;28;20259;-75
2022/01/26 03:05:53;;;;;;;26.53;13.90;;;;;;;;;;5090259;28;20207;-73
2022/01/26 03:08:29;;;;;;;28.50;14.53;;;;;;;;;;5090348;28;20252;-76
2022/01/26 03:11:02;;;;;;;29.07;15.47;;;;;;;;;;5085545;28;20983;-77
2022/01/26 03:13:34;;;;;;;29.10;14.90;;;;;;;;;;5073777;28;20208;-75
2022/01/26 03:16:09;;;;;;;31.87;16.53;;;;;;;;;;5086251;28;20195;-74
2022/01/26 03:18:54;;;;;;;33.57;17.30;;;;;;;;;;5069610;28;20221;-73
2022/01/26 03:21:29;;;;;;;31.97;15.00;;;;;;;;;;5077338;28;20211;-75
2022/01/26 03:29:56;;;;;;;39.60;19.77;;;;;;;;;;5079405;28;20266;-71
2022/01/26 03:35:15;;;;;;;44.43;21.80;;;;;;;;;;5058822;28;20263;-74
2022/01/26 03:37:51;;;;;;;48.30;23.80;;;;;;;;;;5057778;28;20222;-75
2022/01/26 03:40:28;;;;;;;46.77;24.57;;;;;;;;;;5063299;28;20211;-76
2022/01/26 03:42:56;;;;;;;51.63;26.03;;;;;;;;;;5063889;28;20559;-73
2022/01/26 03:45:26;;;;;;;55.13;25.47;;;;;;;;;;5056217;28;20632;-75
2022/01/26 03:47:55;;;;;;;55.97;25.87;;;;;;;;;;5057735;28;20225;-75
2022/01/26 03:50:24;;;;;;;55.77;25.73;;;;;;;;;;5056230;28;20249;-73
2022/01/26 03:52:53;;;;;;;51.30;25.77;;;;;;;;;;5055443;28;20723;-73
2022/01/26 03:55:21;;;;;;;57.23;26.67;;;;;;;;;;5055213;28;20197;-75
2022/01/26 03:57:49;;;;;;;54.10;25.87;;;;;;;;;;5064178;28;20228;-72
2022/01/26 04:00:18;;;;;;;52.17;25.47;;;;;;;;;;5057083;28;20209;-76
2022/01/26 04:02:48;;;;;;;55.30;25.37;;;;;;;;;;5066136;28;20204;-74
2022/01/26 04:05:17;;;;;;;45.53;21.27;;;;;;;;;;5055733;28;20234;-77
2022/01/26 04:07:46;;;;;;;50.13;23.40;;;;;;;;;;5055452;28;20229;-74
2022/01/26 04:10:23;;;;;;;48.70;21.00;;;;;;;;;;5070034;28;20201;-74
2022/01/26 04:12:54;;;;;;;53.23;24.10;;;;;;;;;;5056346;28;20202;-75
2022/01/26 04:15:26;;;;;;;44.70;21.17;;;;;;;;;;5074919;28;20213;-77
2022/01/26 04:17:57;;;;;;;48.73;23.20;;;;;;;;;;5072360;28;20290;-73
2022/01/26 04:20:29;;;;;;;52.80;24.53;;;;;;;;;;5055359;28;20199;-73
2022/01/26 04:23:08;;;;;;;57.23;25.90;;;;;;;;;;5055323;28;20204;-76
2022/01/26 04:25:38;;;;;;;53.30;24.53;;;;;;;;;;5055002;28;20236;-76
2022/01/26 04:28:11;;;;;;;55.03;23.03;;;;;;;;;;5058261;28;20217;-75
2022/01/26 04:30:40;;;;;;;46.80;22.87;;;;;;;;;;5073178;28;20727;-76
2022/01/26 04:33:09;;;;;;;48.83;23.30;;;;;;;;;;5061415;28;20288;-72
2022/01/26 04:35:42;;;;;;;59.07;24.17;;;;;;;;;;5074928;28;20549;-76
2022/01/26 04:38:17;;;;;;;51.20;22.53;;;;;;;;;;5062844;28;20278;-74
2022/01/26 04:40:56;;;;;;;53.33;23.03;;;;;;;;;;5074798;28;20624;-73
2022/01/26 04:43:28;;;;;;;44.67;20.47;;;;;;;;;;5069467;28;20749;-75
2022/01/26 04:45:57;;;;;;;47.37;21.67;;;;;;;;;;5053787;28;20232;-73
2022/01/26 04:48:27;;;;;;;48.03;21.37;;;;;;;;;;5059662;28;20216;-75
2022/01/26 04:50:55;;;;;;;43.73;18.80;;;;;;;;;;5073688;28;20193;-74
2022/01/26 04:53:24;;;;;;;46.00;19.83;;;;;;;;;;5054321;28;20205;-72
2022/01/26 04:55:53;;;;;;;52.73;23.67;;;;;;;;;;5054433;28;20263;-74
2022/01/26 04:58:21;;;;;;;42.20;19.07;;;;;;;;;;5054664;28;20226;-72
2022/01/26 05:00:50;;;;;;;56.43;24.93;;;;;;;;;;5064706;28;20708;-74
2022/01/26 05:03:18;;;;;;;51.53;24.20;;;;;;;;;;5056237;28;20208;-75
2022/01/26 05:05:48;;;;;;;60.20;24.83;;;;;;;;;;5067262;28;20208;-72
2022/01/26 05:08:17;;;;;;;60.17;25.13;;;;;;;;;;5072625;28;20220;-73
2022/01/26 05:10:45;;;;;;;55.87;25.07;;;;;;;;;;5074088;28;20203;-75
2022/01/26 05:13:15;;;;;;;53.07;24.00;;;;;;;;;;5057802;28;20242;-74
2022/01/26 05:15:44;;;;;;;49.20;21.70;;;;;;;;;;5054116;28;20616;-77
2022/01/26 05:18:12;;;;;;;60.87;27.67;;;;;;;;;;5054129;28;20281;-71
2022/01/26 05:20:41;;;;;;;53.80;23.60;;;;;;;;;;5054523;28;20220;-73
2022/01/26 05:23:11;;;;;;;61.43;26.23;;;;;;;;;;5061120;28;20204;-73
2022/01/26 05:25:40;;;;;;;60.10;23.57;;;;;;;;;;5072828;28;20621;-73
2022/01/26 05:28:08;;;;;;;68.50;27.60;;;;;;;;;;5073880;28;20228;-75
2022/01/26 05:30:37;;;;;;;61.90;26.63;;;;;;;;;;5056610;28;20204;-73
2022/01/26 05:33:05;;;;;;;56.30;24.93;;;;;;;;;;5059370;28;20656;-73
2022/01/26 05:35:34;;;;;;;64.80;27.03;;;;;;;;;;5062634;28;20602;-73
2022/01/26 05:38:02;;;;;;;66.17;28.57;;;;;;;;;;5055463;28;20231;-76
2022/01/26 05:40:32;;;;;;;76.80;28.37;;;;;;;;;;5067218;28;20705;-72
2022/01/26 05:43:00;;;;;;;60.47;27.43;;;;;;;;;;5065384;28;20594;-72
2022/01/26 05:45:33;;;;;;;65.13;26.17;;;;;;;;;;5071359;28;20218;-73
2022/01/26 05:48:04;;;;;;;64.27;26.20;;;;;;;;;;5060058;28;20216;-76
2022/01/26 05:50:33;;;;;;;63.60;25.53;;;;;;;;;;5055663;28;20238;-74
2022/01/26 05:53:01;;;;;;;65.90;27.03;;;;;;;;;;5057481;28;20205;-74
2022/01/26 05:55:30;;;;;;;67.50;26.57;;;;;;;;;;5052950;28;20720;-74
2022/01/26 05:57:59;;;;;;;61.77;26.47;;;;;;;;;;5052759;28;20266;-76
2022/01/26 06:00:28;;;;;;;65.53;26.57;;;;;;;;;;5053072;28;20200;-75
2022/01/26 06:02:57;;;;;;;65.83;25.53;;;;;;;;;;5053321;28;20195;-72
2022/01/26 06:05:25;;;;;;;62.53;25.60;;;;;;;;;;5053103;28;20276;-72
2022/01/26 06:07:53;;;;;;;58.57;23.83;;;;;;;;;;5072843;28;20241;-73
2022/01/26 06:10:22;;;;;;;65.83;26.57;;;;;;;;;;5062917;28;20315;-73
2022/01/26 06:12:50;;;;;;;65.57;26.17;;;;;;;;;;5059999;28;20222;-76
2022/01/26 06:15:20;;;;;;;65.07;27.67;;;;;;;;;;5061988;28;20250;-74
2022/01/26 06:17:53;;;;;;;77.43;27.77;;;;;;;;;;5056539;28;20223;-74
2022/01/26 06:20:22;;;;;;;70.20;27.37;;;;;;;;;;5063394;28;20199;-72
2022/01/26 06:22:50;;;;;;;73.93;28.17;;;;;;;;;;5060161;28;20726;-75
2022/01/26 06:25:18;;;;;;;71.20;27.03;;;;;;;;;;5062806;28;20690;-75
2022/01/26 06:27:51;;;;;;;67.70;26.47;;;;;;;;;;5053851;28;20249;-72
2022/01/26 06:30:21;;;;;;;59.40;22.10;;;;;;;;;;5065908;28;20723;-73
2022/01/26 06:32:50;;;;;;;78.57;28.67;;;;;;;;;;5064477;28;20626;-73
2022/01/26 06:35:21;;;;;;;68.93;25.73;;;;;;;;;;5062357;28;20562;-75
2022/01/26 06:37:50;;;;;;;64.57;25.27;;;;;;;;;;5052284;28;20223;-75
2022/01/26 06:40:19;;;;;;;63.93;24.93;;;;;;;;;;5055666;28;20255;-73
2022/01/26 06:42:53;;;;;;;63.43;24.63;;;;;;;;;;5062460;28;20226;-73
2022/01/26 06:45:25;;;;;;;70.97;26.70;;;;;;;;;;5054321;28;20208;-75
2022/01/26 06:48:13;;;;;;;75.57;28.63;;;;;;;;;;5070323;28;20251;-75
2022/01/26 06:50:41;;;;;;;74.63;28.10;;;;;;;;;;5073045;28;20192;-71
2022/01/26 06:53:10;;;;;;;69.10;27.03;;;;;;;;;;5072890;28;21022;-74
2022/01/26 06:55:38;;;;;;;78.17;30.23;;;;;;;;;;5072169;28;20195;-75
2022/01/26 06:58:07;;;;;;;82.80;30.53;;;;;;;;;;5072814;28;20226;-75
2022/01/26 07:00:37;;;;;;;75.03;27.67;;;;;;;;;;5072836;28;20210;-74
2022/01/26 07:03:05;;;;;;;73.97;29.80;;;;;;;;;;5060304;28;20204;-75
2022/01/26 07:05:34;;;;;;;79.57;30.90;;;;;;;;;;5052319;28;20281;-75
2022/01/26 07:08:02;;;;;;;80.03;30.63;;;;;;;;;;5052717;28;20616;-71
2022/01/26 07:10:37;;;;;;;84.00;31.37;;;;;;;;;;5060241;28;20186;-72
2022/01/26 07:13:05;;;;;;;76.13;30.43;;;;;;;;;;5058377;28;20205;-75
2022/01/26 07:23:49;;;;;;;82.57;31.00;;;;;;;;;;5061607;28;20212;-75
2022/01/26 07:26:18;;;;;;;77.10;28.97;;;;;;;;;;5064633;28;20214;-72
2022/01/26 07:28:46;;;;;;;82.13;30.40;;;;;;;;;;5059267;28;20270;-75
2022/01/26 07:31:15;;;;;;;91.40;32.87;;;;;;;;;;5065577;28;20673;-73
2022/01/26 07:33:45;;;;;;;88.87;34.30;;;;;;;;;;5058073;28;20252;-76
2022/01/26 07:36:13;;;;;;;89.83;34.57;;;;;;;;;;5061191;28;20415;-72
2022/01/26 07:38:41;;;;;;;94.13;35.17;;;;;;;;;;5063367;28;20271;-74
2022/01/26 07:41:10;;;;;;;89.23;35.13;;;;;;;;;;5066664;28;20604;-75
2022/01/26 07:43:38;;;;;;;86.00;33.17;;;;;;;;;;5056110;28;20200;-73
2022/01/26 07:46:07;;;;;;;87.73;34.17;;;;;;;;;;5061609;28;20703;-74
2022/01/26 07:48:36;;;;;;;84.20;29.63;;;;;;;;;;5056029;28;20261;-72
2022/01/26 07:51:05;;;;;;;89.13;33.63;;;;;;;;;;5075410;28;20262;-75
2022/01/26 07:53:34;;;;;;;86.80;32.63;;;;;;;;;;5067330;28;20257;-74
2022/01/26 07:56:03;;;;;;;92.67;35.67;;;;;;;;;;5055655;28;20627;-73
2022/01/26 07:58:31;;;;;;;100.80;37.37;;;;;;;;;;5055950;28;20227;-74
2022/01/26 08:00:59;;;;;;;86.67;34.73;;;;;;;;;;5055644;28;20208;-76
2022/01/26 08:03:33;;;;;;;95.87;36.03;;;;;;;;;;5054991;28;20270;-74
2022/01/26 08:06:02;;;;;;;90.10;33.30;;;;;;;;;;5055506;28;20315;-72
2022/01/26 08:08:32;;;;;;;86.43;33.63;;;;;;;;;;5062112;28;20557;-72
2022/01/26 08:11:01;;;;;;;85.80;33.67;;;;;;;;;;5075583;28;20550;-73
2022/01/26 08:13:29;;;;;;;88.80;34.07;;;;;;;;;;5075482;28;20214;-74
2022/01/26 08:15:58;;;;;;;83.27;32.60;;;;;;;;;;5075378;28;20630;-73
2022/01/26 08:18:26;;;;;;;79.70;31.87;;;;;;;;;;5055446;28;20219;-75
2022/01/26 08:21:01;;;;;;;82.87;32.57;;;;;;;;;;5055042;28;20727;-72
2022/01/26 08:23:29;;;;;;;84.53;32.90;;;;;;;;;;5055628;28;20207;-73
2022/01/26 08:26:00;;;;;;;80.97;31.67;;;;;;;;;;5055888;28;20216;-75
2022/01/26 08:28:34;;;;;;;82.00;31.67;;;;;;;;;;5061823;28;20222;-74
2022/01/26 08:31:02;;;;;;;85.87;32.73;;;;;;;;;;5074770;28;20210;-74
2022/01/26 08:33:31;;;;;;;84.83;32.17;;;;;;;;;;5059108;28;20202;-73
2022/01/26 08:35:59;;;;;;;84.40;32.63;;;;;;;;;;5059262;28;20252;-73
2022/01/26 08:38:28;;;;;;;73.80;32.67;;;;;;;;;;5070958;28;20223;-75
2022/01/26 08:40:56;;;;;;;89.17;33.40;;;;;;;;;;5074334;28;20232;-74
2022/01/26 08:43:26;;;;;;;87.20;34.13;;;;;;;;;;5069454;28;20223;-73
2022/01/26 08:45:55;;;;;;;84.30;32.73;;;;;;;;;;5073892;28;20218;-75
2022/01/26 08:48:23;;;;;;;88.17;32.93;;;;;;;;;;5074666;28;20257;-75
2022/01/26 08:50:52;;;;;;;87.53;34.47;;;;;;;;;;5074163;28;20199;-72
2022/01/26 08:53:20;;;;;;;90.73;35.00;;;;;;;;;;5074338;28;20247;-72
2022/01/26 08:55:51;;;;;;;95.13;35.87;;;;;;;;;;5074730;28;20196;-72
2022/01/26 08:58:19;;;;;;;84.17;33.37;;;;;;;;;;5074713;28;20254;-74
2022/01/26 09:00:49;;;;;;;91.70;34.47;;;;;;;;;;5074312;28;20210;-73
2022/01/26 09:03:19;;;;;;;94.33;36.87;;;;;;;;;;5069592;28;20202;-75
2022/01/26 09:05:47;;;;;;;88.43;34.47;;;;;;;;;;5055842;28;20222;-71
2022/01/26 09:08:17;;;;;;;91.87;34.90;;;;;;;;;;5054462;28;20223;-72
2022/01/26 09:10:46;;;;;;;89.80;35.80;;;;;;;;;;5062418;28;20249;-74
2022/01/26 09:13:14;;;;;;;93.40;37.03;;;;;;;;;;5072380;28;20248;-72
2022/01/26 09:15:43;;;;;;;93.87;35.70;;;;;;;;;;5055551;28;20192;-73
2022/01/26 09:18:18;;;;;;;96.77;38.17;;;;;;;;;;5070972;28;20227;-72
2022/01/26 09:20:46;;;;;;;93.13;37.70;;;;;;;;;;5074406;28;20186;-73
2022/01/26 09:23:14;;;;;;;95.43;35.67;;;;;;;;;;5073734;28;20214;-74
2022/01/26 09:25:43;;;;;;;98.57;38.33;;;;;;;;;;5073753;28;20206;-75
2022/01/26 09:28:11;;;;;;;94.07;37.20;;;;;;;;;;5072304;28;20279;-71
2022/01/26 09:30:40;;;;;;;94.67;36.40;;;;;;;;;;5057745;28;20204;-75
2022/01/26 09:33:08;;;;;;;101.23;37.97;;;;;;;;;;5053799;28;20195;-75
2022/01/26 09:35:38;;;;;;;94.90;35.60;;;;;;;;;;5061423;28;20248;-75
2022/01/26 09:38:06;;;;;;;91.37;36.03;;;;;;;;;;5073914;28;20272;-73
2022/01/26 09:40:35;;;;;;;93.27;36.27;;;;;;;;;;5073723;28;20206;-75
2022/01/26 09:43:03;;;;;;;103.23;39.17;;;;;;;;;;5073478;28;20202;-75
2022/01/26 09:45:34;;;;;;;106.67;38.50;;;;;;;;;;5055128;28;20558;-74
2022/01/26 09:48:03;;;;;;;99.13;38.63;;;;;;;;;;5055727;28;20694;-75
2022/01/26 09:50:42;;;;;;;96.80;38.30;;;;;;;;;;5063211;28;20696;-74
2022/01/26 09:53:12;;;;;;;101.27;39.63;;;;;;;;;;5053654;28;20261;-73
2022/01/26 09:55:43;;;;;;;93.23;37.33;;;;;;;;;;5053512;28;20203;-73
2022/01/26 09:58:11;;;;;;;101.73;40.43;;;;;;;;;;5053176;28;20682;-73
2022/01/26 10:00:40;;;;;;;102.43;38.80;;;;;;;;;;5053724;28;20203;-72
2022/01/26 10:03:09;;;;;;;97.63;39.63;;;;;;;;;;5053018;28;20199;-72
2022/01/26 10:05:43;;;;;;;99.73;40.77;;;;;;;;;;5053134;28;20200;-75
2022/01/26 10:08:24;;;;;;;97.57;40.13;;;;;;;;;;5053039;28;20227;-73
2022/01/26 10:19:29;;;;;;;96.20;38.17;;;;;;;;;;5025996;28;20211;-73
2022/01/26 10:21:58;;;;;;;94.70;38.83;;;;;;;;;;5045222;28;20208;-73
2022/01/26 10:24:29;;;;;;;94.77;38.23;;;;;;;;;;5052818;28;20581;-73
2022/01/26 10:26:59;;;;;;;99.97;39.07;;;;;;;;;;5052995;28;20208;-74
2022/01/26 10:29:29;;;;;;;100.20;39.07;;;;;;;;;;5053184;28;20284;-72
2022/01/26 10:31:58;;;;;;;94.07;39.83;;;;;;;;;;5053453;28;20203;-76
2022/01/26 10:34:26;;;;;;;96.97;39.70;;;;;;;;;;5052826;28;20604;-74
2022/01/26 10:36:57;;;;;;;99.07;39.73;;;;;;;;;;5053164;28;20543;-73
2022/01/26 10:39:30;;;;;;;96.03;38.60;;;;;;;;;;5060224;28;20204;-76
2022/01/26 10:42:02;;;;;;;105.40;40.17;;;;;;;;;;5069854;28;20203;-75
2022/01/26 10:44:34;;;;;;;95.37;38.17;;;;;;;;;;5070197;28;20290;-74
2022/01/26 10:47:04;;;;;;;103.47;41.30;;;;;;;;;;5067007;28;20219;-74
2022/01/26 10:49:55;;;;;;;98.97;39.30;;;;;;;;;;5076759;28;20187;-74
2022/01/26 10:52:32;;;;;;;107.87;40.80;;;;;;;;;;5057034;28;20195;-72
2022/01/26 10:55:01;;;;;;;100.80;40.70;;;;;;;;;;5064591;28;20191;-75
2022/01/26 10:57:30;;;;;;;103.17;40.67;;;;;;;;;;5076596;28;20243;-73
2022/01/26 10:59:58;;;;;;;106.57;41.23;;;;;;;;;;5057006;28;20569;-75
2022/01/26 11:02:30;;;;;;;103.33;40.37;;;;;;;;;;5058267;28;20831;-73
2022/01/26 11:04:59;;;;;;;108.07;41.70;;;;;;;;;;5075831;28;20206;-73
2022/01/26 11:07:31;;;;;;;104.77;39.70;;;;;;;;;;5075612;28;20596;-75
2022/01/26 11:10:02;;;;;;;109.20;40.20;;;;;;;;;;5076648;28;20202;-74
2022/01/26 11:12:32;;;;;;;103.43;40.00;;;;;;;;;;5075987;28;20204;-75
2022/01/26 11:15:06;;;;;;;103.27;39.67;;;;;;;;;;5076437;28;20210;-74
2022/01/26 11:17:36;;;;;;;102.63;40.60;;;;;;;;;;5067741;28;20723;-74
2022/01/26 11:20:17;;;;;;;108.27;41.30;;;;;;;;;;5076292;28;20564;-74
2022/01/26 11:22:49;;;;;;;103.03;40.83;;;;;;;;;;5076101;28;20284;-73
2022/01/26 11:25:18;;;;;;;107.07;40.63;;;;;;;;;;5076114;28;20555;-74
2022/01/26 11:27:48;;;;;;;103.17;39.63;;;;;;;;;;5074533;28;20228;-75
2022/01/26 11:30:17;;;;;;;94.60;38.40;;;;;;;;;;5076012;28;20622;-75
2022/01/26 11:32:54;;;;;;;104.03;40.50;;;;;;;;;;5068217;28;20736;-72
2022/01/26 11:35:23;;;;;;;97.63;39.40;;;;;;;;;;5076114;28;20205;-74
2022/01/26 11:38:04;;;;;;;97.07;38.67;;;;;;;;;;5072479;28;20218;-74
2022/01/26 11:46:25;;;;;;;99.50;38.33;;;;;;;;;;5075657;28;20204;-74
2022/01/26 11:49:00;;;;;;;99.80;39.10;;;;;;;;;;5055516;28;20237;-76
2022/01/26 11:51:39;;;;;;;100.20;40.77;;;;;;;;;;5055654;28;20713;-73
2022/01/26 11:54:12;;;;;;;104.13;40.90;;;;;;;;;;5055429;28;20266;-73
2022/01/26 11:56:40;;;;;;;104.33;40.60;;;;;;;;;;5054653;28;20204;-74
2022/01/26 11:59:19;;;;;;;103.37;40.87;;;;;;;;;;5055641;28;20209;-75
2022/01/26 12:01:55;;;;;;;102.90;41.03;;;;;;;;;;5055751;28;20211;-75
2022/01/26 12:04:25;;;;;;;106.23;42.73;;;;;;;;;;5055324;28;20232;-75
2022/01/26 12:06:59;;;;;;;103.00;40.40;;;;;;;;;;5055466;28;20262;-74
2022/01/26 12:09:27;;;;;;;107.90;41.97;;;;;;;;;;5055213;28;20604;-74
2022/01/26 12:11:56;;;;;;;107.00;40.67;;;;;;;;;;5055070;28;20612;-75
2022/01/26 12:14:26;;;;;;;111.00;44.73;;;;;;;;;;5068032;28;20208;-73
2022/01/26 12:16:58;;;;;;;113.00;42.33;;;;;;;;;;5067785;28;20196;-73
2022/01/26 12:19:34;;;;;;;111.47;41.63;;;;;;;;;;5057244;28;20226;-75
2022/01/26 12:36:23;;;;;;;115.80;44.57;;;;;;;;;;5074381;28;20602;-74
2022/01/26 12:38:58;;;;;;;124.00;44.63;;;;;;;;;;5074767;28;20216;-74
2022/01/26 12:41:32;;;;;;;115.20;43.37;;;;;;;;;;5074751;28;20200;-73
2022/01/26 12:44:01;;;;;;;124.07;44.43;;;;;;;;;;5069736;28;20207;-72
2022/01/26 12:46:32;;;;;;;116.27;44.10;;;;;;;;;;5074806;28;20274;-75
2022/01/26 12:49:02;;;;;;;120.23;45.50;;;;;;;;;;5074856;28;20624;-73
2022/01/26 12:51:31;;;;;;;124.83;47.70;;;;;;;;;;5068968;28;20204;-72
2022/01/26 12:54:00;;;;;;;130.00;47.20;;;;;;;;;;5055106;28;20243;-74
2022/01/26 12:56:30;;;;;;;122.13;47.43;;;;;;;;;;5067836;28;20698;-74
2022/01/26 12:59:02;;;;;;;119.97;45.27;;;;;;;;;;5066376;28;20221;-75
2022/01/26 13:01:32;;;;;;;124.70;45.30;;;;;;;;;;5074713;28;20204;-75
2022/01/26 13:04:01;;;;;;;124.27;46.23;;;;;;;;;;5053497;28;20244;-74
2022/01/26 13:06:31;;;;;;;123.67;46.27;;;;;;;;;;5053590;28;20201;-75
2022/01/26 13:09:00;;;;;;;138.33;47.00;;;;;;;;;;5053970;28;20221;-75
2022/01/26 13:11:30;;;;;;;130.63;46.87;;;;;;;;;;5053160;28;20201;-74
2022/01/26 13:14:10;;;;;;;126.77;47.37;;;;;;;;;;5070719;28;20204;-74
2022/01/26 13:16:43;;;;;;;128.87;46.67;;;;;;;;;;5072216;28;20564;-73
2022/01/26 13:19:27;;;;;;;133.30;47.73;;;;;;;;;;5063434;28;20184;-74
2022/01/26 13:25:06;;;;;;;130.53;47.47;;;;;;;;;;5049685;28;20725;-74
2022/01/26 13:27:52;;;;;;;144.57;50.60;;;;;;;;;;5065625;28;20213;-75
2022/01/26 13:30:35;;;;;;;132.37;47.27;;;;;;;;;;5068775;28;20676;-72
2022/01/26 13:36:06;;;;;;;146.23;50.10;;;;;;;;;;5067551;28;20238;-74
2022/01/26 13:38:47;;;;;;;141.67;46.63;;;;;;;;;;5056366;28;20618;-73
2022/01/26 13:41:31;;;;;;;138.43;47.53;;;;;;;;;;5053644;28;20652;-75
2022/01/26 13:44:28;;;;;;;154.37;51.93;;;;;;;;;;5057087;28;20203;-75
2022/01/26 13:47:17;;;;;;;141.33;48.10;;;;;;;;;;5053263;28;20262;-73
2022/01/26 13:52:41;;;;;;;141.70;47.67;;;;;;;;;;5057823;28;20209;-73
2022/01/26 13:58:05;;;;;;;138.20;47.80;;;;;;;;;;5067221;28;20217;-75
2022/01/26 14:00:40;;;;;;;145.60;48.43;;;;;;;;;;5060017;28;20209;-72
2022/01/26 14:03:12;;;;;;;143.73;47.03;;;;;;;;;;5059078;28;20285;-77
2022/01/26 14:05:42;;;;;;;149.07;48.20;;;;;;;;;;5062251;28;20226;-74
2022/01/26 14:08:10;;;;;;;147.70;48.40;;;;;;;;;;5059720;28;20230;-74
2022/01/26 14:10:43;;;;;;;130.97;46.93;;;;;;;;;;5059324;28;20213;-74
2022/01/26 14:13:12;;;;;;;146.70;47.63;;;;;;;;;;5056428;28;20236;-77
2022/01/26 14:15:44;;;;;;;156.30;47.47;;;;;;;;;;5070381;28;20208;-77
2022/01/26 14:18:39;;;;;;;146.20;47.50;;;;;;;;;;5064540;28;20585;-75
2022/01/26 14:21:24;;;;;;;142.70;47.27;;;;;;;;;;5058582;28;20281;-75
2022/01/26 14:24:12;;;;;;;145.33;48.67;;;;;;;;;;5058175;28;20655;-76
2022/01/26 14:26:44;;;;;;;142.70;45.97;;;;;;;;;;5053414;28;20207;-75
2022/01/26 14:32:33;;;;;;;145.03;46.77;;;;;;;;;;5057575;28;20197;-77
2022/01/26 14:35:23;;;;;;;134.87;45.37;;;;;;;;;;5053094;28;20593;-75
2022/01/26 14:52:37;;;;;;;122.67;37.60;;;;;;;;;;5051612;28;20205;-76
2022/01/26 14:55:16;;;;;;;125.90;38.67;;;;;;;;;;5050829;28;20208;-76
2022/01/26 15:09:14;;;;;;;144.93;44.97;;;;;;;;;;5015840;28;20234;-78
2022/01/26 15:12:18;;;;;;;122.60;38.60;;;;;;;;;;5067237;28;20287;-78
2022/01/26 15:34:36;;;;;;;147.50;43.97;;;;;;;;;;5074300;28;20202;-77
2022/01/26 15:40:21;;;;;;;141.93;43.93;;;;;;;;;;5056885;28;20201;-76
2022/01/26 15:43:33;;;;;;;138.40;44.20;;;;;;;;;;5064307;28;20255;-79
2022/01/26 15:49:20;;;;;;;134.53;41.93;;;;;;;;;;5056946;28;20225;-79
2022/01/26 15:52:04;;;;;;;136.93;43.37;;;;;;;;;;5056782;28;20209;-79
2022/01/26 16:06:12;;;;;;;116.47;39.93;;;;;;;;;;5012774;28;20221;-79
2022/01/26 16:17:30;;;;;;;100.67;36.00;;;;;;;;;;5057993;28;20227;-78
2022/01/26 16:20:20;;;;;;;100.77;34.53;;;;;;;;;;5053915;28;20202;-78
2022/01/26 17:02:37;;;;;;;92.23;34.53;;;;;;;;;;5060051;28;20204;-73
2022/01/26 17:25:29;;;;;;;105.80;37.67;;;;;;;;;;5067345;28;21012;-74
2022/01/26 17:48:20;;;;;;;100.90;37.50;;;;;;;;;;5052180;28;20230;-76
2022/01/26 18:04:52;;;;;;;97.13;37.60;;;;;;;;;;5056117;28;20211;-75
2022/01/26 18:13:03;;;;;;;100.33;37.37;;;;;;;;;;5048496;28;20299;-75
2022/01/26 18:15:56;;;;;;;101.60;37.50;;;;;;;;;;5034665;28;20244;-76
2022/01/26 18:27:01;;;;;;;91.87;35.90;;;;;;;;;;5056503;28;20226;-74
2022/01/26 18:32:25;;;;;;;86.77;33.70;;;;;;;;;;5053393;28;20222;-76
2022/01/26 18:40:42;;;;;;;76.90;33.13;;;;;;;;;;5059440;28;20213;-77
2022/01/26 18:46:47;;;;;;;78.90;32.87;;;;;;;;;;5058531;28;20206;-74
2022/01/26 18:49:18;;;;;;;76.73;32.70;;;;;;;;;;5055019;28;20208;-74
2022/01/26 18:51:49;;;;;;;82.33;32.90;;;;;;;;;;5064125;28;20967;-75
2022/01/26 18:54:21;;;;;;;85.33;32.97;;;;;;;;;;5066324;28;20217;-74
2022/01/26 18:56:50;;;;;;;77.00;31.20;;;;;;;;;;5060115;28;21497;-75
2022/01/26 18:59:19;;;;;;;81.57;33.20;;;;;;;;;;5060203;28;20199;-76
2022/01/26 19:01:48;;;;;;;77.00;31.40;;;;;;;;;;5060134;28;20212;-75
2022/01/26 19:04:29;;;;;;;83.30;32.43;;;;;;;;;;5062926;28;20518;-75
2022/01/26 19:06:58;;;;;;;76.80;31.63;;;;;;;;;;5053346;28;20238;-75
2022/01/26 19:09:31;;;;;;;79.80;33.13;;;;;;;;;;5063594;28;20203;-74
2022/01/26 19:12:02;;;;;;;81.90;32.83;;;;;;;;;;5069204;28;20291;-74
2022/01/26 19:14:35;;;;;;;84.47;36.33;;;;;;;;;;5059668;28;20212;-74
2022/01/26 19:17:09;;;;;;;86.37;35.73;;;;;;;;;;5054260;28;20212;-74
2022/01/26 19:19:46;;;;;;;87.67;35.43;;;;;;;;;;5060272;28;20261;-75
2022/01/26 19:25:10;;;;;;;99.37;34.87;;;;;;;;;;5059029;28;20201;-74
2022/01/26 19:27:47;;;;;;;83.77;35.30;;;;;;;;;;5069621;28;20313;-75
2022/01/26 19:44:39;;;;;;;83.30;33.57;;;;;;;;;;5016138;28;20244;-76
2022/01/26 19:50:41;;;;;;;79.13;31.83;;;;;;;;;;5025103;28;20752;-76
2022/01/26 19:52:56;;;;;;;82.30;33.33;;;;;;;;;;5063170;28;20663;-76
2022/01/26 19:55:24;;;;;;;85.07;33.50;;;;;;;;;;5067083;28;20239;-75
2022/01/26 19:57:55;;;;;;;81.17;33.07;;;;;;;;;;5061875;28;20226;-76
2022/01/26 20:00:24;;;;;;;77.97;34.63;;;;;;;;;;5063659;28;20219;-75
2022/01/26 20:02:54;;;;;;;90.07;35.47;;;;;;;;;;5054475;28;20569;-75
2022/01/26 20:05:23;;;;;;;86.13;33.83;;;;;;;;;;5063028;28;20204;-75